Tiempo atmosférico en la estación meteorológica de Sant Pau De Seguries, Girona (863 m.)



Fecha
DESCASC
Temp. máxima en grados centígrados (hora)
DESCASC
Temp. mínima en grados centígrados (hora)
DESCASC
Temp. media en grados centígrados
DESCASC
Racha de viento máxima en m/sg (hora)
DESCASC
Velocidad máxima media en intervalos de 10 minutos(hora)
DESCASC
Precipitaciones diarias en mm
DESCASC
Precipitaciones de 00:00 a 06:00 en mm
DESCASC
Precipitaciones de 06:00 a 12:00 en mm
DESCASC
Precipitaciones de 12:00 a 18:00 en mm
DESCASC
Precipitaciones de 18:00 a 24:00 en mm
DESCASC
17-02-2019 15.1 (13:20) -5.7 (08:20) 4.7 6.67 (15:00) 3.33 (13:50) 0 0 0 0 0
16-02-2019 17.1 (14:30) -6.1 (07:40) 5.5 6.67 (13:50) 3.61 (13:50) 0 0 0 0 0
15-02-2019 15.8 (15:30) -3.1 (04:50) 6.4 8.89 (14:10) 5 (00:10) 0 0 0 0 0
14-02-2019 14.7 (15:10) -4.6 (-00:0) 5 9.17 (14:20) 4.72 (23:50) 0 0 0 0 0
13-02-2019 11.5 (15:10) -4.4 (-00:0) 3.5 5.28 (13:10) 2.78 (15:40) 0 0 0 0 0
12-02-2019 13.8 (15:10) -4.9 (-00:0) 4.5 5.83 (11:50) 2.78 (14:10) 0 0 0 0 0
11-02-2019 9.4 (12:20) -1.6 (-00:0) 3.9 5.28 (12:50) 2.5 (11:00) 0 0 0 0 0
10-02-2019 12 (13:40) 1.8 (00:00) 6.9 12.22 (12:40) 6.11 (12:40) 0 0 0 0 0
09-02-2019 13.5 (15:30) -0.8 (-00:0) 6.3 10.83 (23:50) 5.28 (23:50) 0 0 0 0 0
08-02-2019 12.8 (15:00) 1.3 (00:00) 7.1 8.61 (11:50) 4.44 (11:50) 0 0 0 0 0
07-02-2019 12.9 (12:50) -1.6 (-00:0) 5.6 5.83 (14:00) 3.33 (14:00) 0 0 0 0 0
06-02-2019 14.7 (13:40) -2.6 (-00:0) 6 5.83 (15:00) 2.78 (15:00) 0 0 0 0 0
05-02-2019 13.5 (15:00) 0.1 (00:00) 6.8 4.44 (16:40) 2.5 (15:50) 0 0 0 0 0
04-02-2019 11 (14:00) -4.5 (-00:0) 3.3 11.94 (00:20) 5 (00:40) 0 0 0 0 0
03-02-2019 4.7 (13:20) -2.7 (-00:0) 1 18.89 (23:30) 5.83 (12:40) 0 0 0 0 0
02-02-2019 3.7 (14:00) 0.3 (00:00) 2 13.61 (21:00) 5.28 (00:10) 5.2 4.6 0.4 0 0.2
01-02-2019 10.5 (15:00) 3.3 (00:00) 6.9 13.06 (23:10) 6.11 (14:00) 5.6 0.8 4.8 0 0
31-01-2019 8.8 (15:40) -2.4 (-00:0) 3.2 12.22 (18:40) 5.28 (02:30) 0 0 0 0 0
30-01-2019 7.4 (14:10) -3 (-00:0) 2.2 8.61 (00:30) 4.17 (00:10) 0 0 0 0 0
29-01-2019 3.7 (01:10) -4 (-00:0) -0.1 11.94 (19:40) 5.83 (19:30) 0 0 0 0 0
28-01-2019 2.4 (23:59) -4 (-00:0) -0.8 9.17 (23:59) 3.33 (12:50) 8.6 0 1.2 4.4 3
27-01-2019 8.1 (12:50) -2.6 (-00:0) 2.8 10.28 (17:50) 4.72 (17:50) 0.2 0 0 0.2 0
26-01-2019 13.8 (12:50) -2.1 (-00:0) 5.9 5.83 (16:20) 3.33 (16:30) 0 0 0 0 0
25-01-2019 13.5 (14:20) -0.2 (00:00) 6.6 16.39 (20:30) 6.67 (16:40) 0 0 0 0 0
24-01-2019 6.3 (13:00) -3.6 (-00:0) 1.4 17.5 (21:00) 6.11 (07:40) 0.4 0.4 0 0 0
23-01-2019 0.8 (15:40) -3.5 (-00:0) -1.3 6.39 (08:40) 3.06 (08:40) 3.8 0 0.6 1.8 1.4
22-01-2019 5.5 (13:40) -7.6 (-00:0) -1 8.89 (15:50) 3.89 (15:40) 0 0 0 0 0
21-01-2019 8.1 (13:10) -4.6 (-00:0) 1.8 6.11 (14:50) 2.78 (13:20) 0 0 0 0 0
20-01-2019 4.9 (16:00) -2 (-00:0) 1.5 7.22 (01:00) 3.61 (00:40) 0 0 0 0 0
19-01-2019 7.6 (14:30) -5.6 (-00:0) 1 6.67 (17:40) 3.33 (18:20) 0 0 0 0 0

Gráficas

Temp. máximas Temp. mínimas Temp. medias Precipitaciones Rachas de viento máximas Velocidades máximas media en intervalos de 10 minutos

Datos horarios

Fecha y hora oficial Temperatura (ºC) Velocidad del viento (km/h) Dirección del viento Racha (km/h) Dirección de racha Precipitación (mm) Presión (hPa) Tendencia (hPa) Humedad (%)
2019-02-17 23:00:00 -0.3 3 Sur 9 Sur 0 -- -- 89
2019-02-17 22:00:00 0.6 0 Calma 4 Sur 0 -- -- 96
2019-02-17 21:00:00 2.2 0 Calma 3 Sudeste 0 -- -- 96
2019-02-17 20:00:00 3.7 0 Calma 4 Este 0 -- -- 92
2019-02-17 19:00:00 6.9 0 Calma 9 Este 0 -- -- 84
2019-02-17 18:00:00 9.9 8 Este 15 Este 0 -- -- 79
2019-02-17 17:00:00 11.7 7 Este 21 Este 0 -- -- 67
2019-02-17 16:00:00 12.6 10 Sudeste 22 Sudeste 0 -- -- 56
2019-02-17 15:00:00 13.7 12 Sudeste 24 Sudeste 0 -- -- 42
2019-02-17 14:00:00 13.9 10 Sur 21 Sudoeste 0 -- -- 32
2019-02-17 13:00:00 15 8 Sudoeste 22 Sudoeste 0 -- -- 25
2019-02-17 12:00:00 13.1 10 Sudoeste 22 Sudoeste 0 -- -- 27
2019-02-17 11:00:00 8.7 7 Sudoeste 14 Sudoeste 0 -- -- 39
2019-02-17 10:00:00 2.5 9 Sudoeste 17 Sudoeste 0 -- -- 57
2019-02-17 09:00:00 -4.4 3 Sudoeste 6 Sur 0 -- -- 81
2019-02-17 08:00:00 -5.6 0 Calma 3 Sudoeste 0 -- -- 84
2019-02-17 07:00:00 -5.3 0 Calma 0 Calma 0 -- -- 82
2019-02-17 06:00:00 -4.8 0 Calma 4 Norte 0 -- -- 81
2019-02-17 05:00:00 -4.9 0 Calma 6 Sudoeste 0 -- -- 84
2019-02-17 04:00:00 -5 0 Calma 3 Sudeste 0 -- -- 81
2019-02-17 03:00:00 -4.5 0 Calma 2 Sudeste 0 -- -- 80
2019-02-17 02:00:00 -3.8 0 Calma 3 Sudeste 0 -- -- 78
2019-02-17 01:00:00 -3 0 Calma 3 Sur 0 -- -- 74
2019-02-17 00:00:00 -1.9 2 Sudoeste 10 Sudoeste 0 -- -- 70
2019-02-16 23:00:00 -1.1 4 Sudoeste 9 Oeste 0 -- -- 68
2019-02-16 22:00:00 -0.7 5 Sudoeste 8 Sudoeste 0 -- -- 68
2019-02-16 21:00:00 0.2 0 Calma 3 Sudeste 0 -- -- 67
2019-02-16 20:00:00 2.7 0 Calma 5 Sudeste 0 -- -- 61
2019-02-16 19:00:00 5.8 2 Norte 6 Norte 0 -- -- 53
2019-02-16 18:00:00 11 0 Calma 18 Sudoeste 0 -- -- 41
2019-02-16 17:00:00 14.8 7 Sudoeste 21 Sudoeste 0 -- -- 20
2019-02-16 16:00:00 16 8 Sur 21 Oeste 0 -- -- 27
2019-02-16 15:00:00 16.9 12 Sudoeste 23 Sudoeste 0 -- -- 18
2019-02-16 14:00:00 17 12 Sudoeste 24 Sudoeste 0 -- -- 17
2019-02-16 13:00:00 16.3 11 Sudoeste 22 Sudoeste 0 -- -- 17
2019-02-16 12:00:00 13.8 8 Sudoeste 15 Sudoeste 0 -- -- 24
2019-02-16 11:00:00 7.9 5 Sur 10 Sudoeste 0 -- -- 41
2019-02-16 10:00:00 1 4 Sur 8 Sur 0 -- -- 65
2019-02-16 09:00:00 -5.6 3 Sudoeste 7 Sudoeste 0 -- -- 91
2019-02-16 08:00:00 -6 2 Sudoeste 5 Sur 0 -- -- 90
2019-02-16 07:00:00 -5.6 2 Sur 4 Sur 0 -- -- 89
2019-02-16 06:00:00 -5.4 0 Calma 4 Sur 0 -- -- 87
2019-02-16 05:00:00 -4.8 0 Calma 4 Sur 0 -- -- 84
2019-02-16 04:00:00 -4.2 0 Calma 4 Sur 0 -- -- 82
2019-02-16 03:00:00 -4 0 Calma 5 Sudoeste 0 -- -- 82
2019-02-16 02:00:00 -3.6 0 Calma 4 Sudoeste 0 -- -- 82
2019-02-16 01:00:00 -3.5 0 Calma 4 Sudoeste 0 -- -- 81
2019-02-16 00:00:00 -2.7 2 Sudoeste 4 Sur 0 -- -- 77
2019-02-15 23:00:00 -1.9 0 Calma 3 Sur 0 -- -- 76
2019-02-15 22:00:00 -0.8 0 Calma 3 Sur 0 -- -- 71
2019-02-15 21:00:00 0.3 0 Calma 3 Sur 0 -- -- 75
2019-02-15 20:00:00 2.2 0 Calma 4 Norte 0 -- -- 72
2019-02-15 19:00:00 5.7 0 Calma 8 Nordeste 0 -- -- 64
2019-02-15 18:00:00 10.7 2 Norte 14 Sudoeste 0 -- -- 50
2019-02-15 17:00:00 14.4 10 Oeste 22 Oeste 0 -- -- 21
2019-02-15 16:00:00 15.1 10 Sudoeste 28 Oeste 0 -- -- 19
2019-02-15 15:00:00 15.4 13 Sudoeste 32 Oeste 0 -- -- 19
2019-02-15 14:00:00 14.8 15 Sudoeste 29 Sudoeste 0 -- -- 20
2019-02-15 13:00:00 14.1 14 Sudoeste 29 Oeste 0 -- -- 21
2019-02-15 12:00:00 12.5 15 Sudoeste 27 Oeste 0 -- -- 24
2019-02-15 11:00:00 8.8 12 Sudoeste 25 Sudoeste 0 -- -- 32
2019-02-15 10:00:00 3.2 9 Sudoeste 27 Sudoeste 0 -- -- 48
2019-02-15 09:00:00 -1.6 10 Sudoeste 23 Sudoeste 0 -- -- 62
2019-02-15 08:00:00 -2.7 9 Sudoeste 19 Sur 0 -- -- 69
2019-02-15 07:00:00 -2.5 6 Sudoeste 16 Oeste 0 -- -- 71
2019-02-15 06:00:00 -2.2 6 Sudoeste 15 Sudoeste 0 -- -- 70
2019-02-15 05:00:00 -3 0 Calma 6 Sudeste 0 -- -- 77
2019-02-15 04:00:00 -2.2 3 Sudeste 15 Sudoeste 0 -- -- 74
2019-02-15 03:00:00 -0.7 8 Sudoeste 31 Oeste 0 -- -- 68
2019-02-15 02:00:00 0 10 Sudoeste 32 Sudoeste 0 -- -- 68
2019-02-15 01:00:00 0.7 15 Sudoeste 31 Sudoeste 0 -- -- 65
2019-02-15 00:00:00 1.6 17 Sudoeste 32 Sudoeste 0 -- -- 63
2019-02-14 23:00:00 0.9 6 Sudoeste 17 Oeste 0 -- -- 67
2019-02-14 22:00:00 1.8 5 Sudoeste 18 Oeste 0 -- -- 62
2019-02-14 21:00:00 0.4 2 Sudeste 6 Sur 0 -- -- 64
2019-02-14 20:00:00 2.7 0 Calma 6 Norte 0 -- -- 56
2019-02-14 19:00:00 5.9 0 Calma 10 Sudoeste 0 -- -- 45
2019-02-14 18:00:00 9.9 5 Sur 19 Sudoeste 0 -- -- 29
2019-02-14 17:00:00 13 8 Sudoeste 24 Oeste 0 -- -- 23
2019-02-14 16:00:00 13.9 11 Sudoeste 30 Sudoeste 0 -- -- 21
2019-02-14 15:00:00 14.6 11 Sudoeste 33 Sudoeste 0 -- -- 22
2019-02-14 14:00:00 14.3 13 Sudoeste 27 Oeste 0 -- -- 17
2019-02-14 13:00:00 13.5 15 Sudoeste 32 Oeste 0 -- -- 17
2019-02-14 12:00:00 12.3 8 Sudoeste 24 Oeste 0 -- -- 22
2019-02-14 11:00:00 8 10 Sudoeste 22 Sudoeste 0 -- -- 36
2019-02-14 10:00:00 1.4 5 Sur 15 Oeste 0 -- -- 76
2019-02-14 09:00:00 -4.2 3 Sudeste 6 Sudeste 0 -- -- 96
2019-02-14 08:00:00 -4.4 3 Sudeste 8 Nordeste 0 -- -- 98
2019-02-14 07:00:00 -4.4 2 Nordeste 5 Nordeste 0 -- -- 98
2019-02-14 06:00:00 -4.2 2 Nordeste 5 Sudeste 0 -- -- 99
2019-02-14 05:00:00 -3.9 2 Nordeste 5 Sudeste 0 -- -- 99
2019-02-14 04:00:00 -3.3 0 Calma 5 Sudoeste 0 -- -- 100
2019-02-14 03:00:00 -3.1 0 Calma 5 Sudeste 0 -- -- 99
2019-02-14 02:00:00 -2.8 0 Calma 4 Oeste 0 -- -- 100
2019-02-14 01:00:00 -2.7 0 Calma 3 Sur 0 -- -- 99
2019-02-14 00:00:00 -2.2 0 Calma 4 Sur 0 -- -- 98
2019-02-13 23:00:00 -1.4 0 Calma 4 Sur 0 -- -- 97
2019-02-13 22:00:00 -0.4 2 Sur 4 Sur 0 -- -- 94
2019-02-13 21:00:00 1 0 Calma 6 Este 0 -- -- 92
2019-02-13 20:00:00 2.5 3 Nordeste 7 Nordeste 0 -- -- 88
2019-02-13 19:00:00 4.9 2 Nordeste 5 Nordeste 0 -- -- 79
2019-02-13 18:00:00 8.1 3 Norte 11 Este 0 -- -- 73
2019-02-13 17:00:00 9.9 4 Sudeste 15 Este 0 -- -- 66
2019-02-13 16:00:00 10.7 8 Este 18 Este 0 -- -- 62
2019-02-13 15:00:00 11.3 10 Sudeste 18 Este 0 -- -- 59
2019-02-13 14:00:00 10.9 9 Este 19 Este 0 -- -- 54
2019-02-13 13:00:00 10.7 10 Sudeste 17 Este 0 -- -- 48
2019-02-13 12:00:00 10.1 5 Sudeste 12 Sudeste 0 -- -- 48
2019-02-13 11:00:00 6.6 4 Sur 6 Sur 0 -- -- 44
2019-02-13 10:00:00 0.9 2 Sur 6 Sudoeste 0 -- -- 64
2019-02-13 09:00:00 -0.9 3 Sudeste 13 Este 0 -- -- 65
2019-02-13 08:00:00 -1 4 Este 14 Nordeste 0 -- -- 58
2019-02-13 07:00:00 -1.1 6 Nordeste 14 Nordeste 0 -- -- 61
2019-02-13 06:00:00 -4.1 2 Sudoeste 4 Sudoeste 0 -- -- 86
2019-02-13 05:00:00 -2.7 0 Calma 11 Nordeste 0 -- -- 79
2019-02-13 04:00:00 -4.2 0 Calma 5 Sur 0 -- -- 94
2019-02-13 03:00:00 -4.1 0 Calma 4 Sur -- -- -- 96
2019-02-13 02:00:00 -4 2 Sudoeste 4 Sudoeste 0 -- -- 95
2019-02-13 01:00:00 -3.4 2 Sudoeste 5 Oeste 0 -- -- 94
2019-02-13 00:00:00 -2.9 3 Sudoeste 4 Sudoeste 0 -- -- 93
2019-02-12 23:00:00 -2.3 0 Calma 4 Sudoeste 0 -- -- 91
2019-02-12 22:00:00 -1.4 0 Calma 4 Sur 0 -- -- 87
2019-02-12 21:00:00 -0.1 0 Calma 4 Sur 0 -- -- 81
2019-02-12 20:00:00 1.9 0 Calma 3 Este 0 -- -- 75
2019-02-12 19:00:00 4.4 0 Calma 4 Norte 0 -- -- 70
2019-02-12 18:00:00 8.7 0 Calma 12 Este 0 -- -- 55
2019-02-12 17:00:00 11.4 8 Sudeste 14 Sudeste 0 -- -- 41
2019-02-12 16:00:00 12.4 7 Sudeste 14 Sur 0 -- -- 31
2019-02-12 15:00:00 13.5 6 Oeste 18 Oeste 0 -- -- 27
2019-02-12 14:00:00 12.9 8 Sudoeste 18 Sudoeste 0 -- -- 24
2019-02-12 13:00:00 11.9 7 Sudoeste 17 Sudoeste 0 -- -- 24
2019-02-12 12:00:00 9.3 8 Sudoeste 21 Sudoeste 0 -- -- 38
2019-02-12 11:00:00 5.5 4 Sudoeste 13 Sudoeste 0 -- -- 51
2019-02-12 10:00:00 0.2 6 Sudoeste 13 Sudoeste 0 -- -- 74
2019-02-12 09:00:00 -4.3 0 Calma 10 Sudoeste 0 -- -- 89
2019-02-12 08:00:00 -3 7 Nordeste 16 Nordeste 0 -- -- 75
2019-02-12 07:00:00 -4.7 2 Sudeste 5 Sur 0 -- -- 94
2019-02-12 06:00:00 -4.2 3 Sur 6 Este 0 -- -- 93
2019-02-12 05:00:00 -3.1 5 Sudoeste 9 Sur 0 -- -- 98
2019-02-12 04:00:00 -2.1 3 Nordeste 14 Sudoeste 0 -- -- 98
2019-02-12 03:00:00 -1.5 6 Sur 17 Oeste 0 -- -- 98
2019-02-12 02:00:00 -0.8 4 Sudoeste 16 Sudoeste 0 -- -- 98
2019-02-12 01:00:00 0.1 3 Oeste 10 Norte 0 -- -- 99
2019-02-12 00:00:00 0.4 3 Sur 12 Noroeste 0 -- -- 97
2019-02-11 23:00:00 2.6 3 Oeste 8 Norte 0 -- -- 98
2019-02-11 22:00:00 1.6 3 Norte 12 Sudeste 0 -- -- 93
2019-02-11 21:00:00 1.3 3 Nordeste 8 Sudeste 0 -- -- 91
2019-02-11 20:00:00 1.8 5 Norte 10 Norte 0 -- -- 82
2019-02-11 19:00:00 3 5 Este 10 Norte 0 -- -- 74
2019-02-11 18:00:00 6.5 2 Sur 11 Norte 0 -- -- 73
2019-02-11 17:00:00 8.1 4 Este 12 Este 0 -- -- 69
2019-02-11 16:00:00 8.7 4 Este 12 Este 0 -- -- 62
2019-02-11 15:00:00 8.9 4 Este 9 Sudeste 0 -- -- 59
2019-02-11 14:00:00 8.4 3 Oeste 13 Oeste 0 -- -- 56
2019-02-11 13:00:00 8.3 8 Sudoeste 19 Sudoeste 0 -- -- 58
2019-02-11 12:00:00 8.7 8 Oeste 17 Oeste 0 -- -- 57
2019-02-11 11:00:00 7 9 Sudoeste 18 Sudoeste 0 -- -- 63
2019-02-11 10:00:00 2.8 2 Sur 8 Sudeste 0 -- -- 70
2019-02-11 09:00:00 0 3 Este 10 Este 0 -- -- 73
2019-02-11 08:00:00 -1 4 Este 9 Este 0 -- -- 80
2019-02-11 07:00:00 -1.3 3 Nordeste 12 Nordeste 0 -- -- 84
2019-02-11 06:00:00 -0.7 2 Noroeste 9 Este 0 -- -- 90
2019-02-11 05:00:00 0.2 2 Este 8 Nordeste 0 -- -- 95
2019-02-11 04:00:00 1 3 Sur 5 Sudeste 0 -- -- 95
2019-02-11 03:00:00 3.8 0 Calma 6 Oeste 0 -- -- 96
2019-02-11 02:00:00 4.3 0 Calma 5 Sur 0 -- -- 96
2019-02-11 01:00:00 5.3 2 Sur 4 Sudeste 0 -- -- 95
2019-02-11 00:00:00 6.3 3 Sudeste 8 Sudeste 0 -- -- 91
2019-02-10 23:00:00 6.7 3 Nordeste 6 Sudeste 0 -- -- 90
2019-02-10 22:00:00 6.8 3 Nordeste 9 Nordeste 0 -- -- 90
2019-02-10 21:00:00 7 5 Nordeste 15 Este 0 -- -- 88
2019-02-10 20:00:00 7.7 5 Nordeste 12 Nordeste 0 -- -- 85
2019-02-10 19:00:00 7.6 3 Nordeste 8 Este 0 -- -- 81
2019-02-10 18:00:00 9.6 0 Calma 17 Oeste 0 -- -- 70
2019-02-10 17:00:00 11.4 10 Sudoeste 24 Oeste 0 -- -- 62
2019-02-10 16:00:00 11.6 14 Sudoeste 32 Sudoeste 0 -- -- 60
2019-02-10 15:00:00 11.6 15 Sudoeste 35 Oeste 0 -- -- 60
2019-02-10 14:00:00 11.5 19 Sudoeste 38 Oeste 0 -- -- 59
2019-02-10 13:00:00 10.8 19 Sudoeste 44 Sudoeste 0 -- -- 59
2019-02-10 12:00:00 9.1 22 Sudoeste 41 Sudoeste 0 -- -- 64
2019-02-10 11:00:00 8 18 Sudoeste 41 Sudoeste 0 -- -- 70
2019-02-10 10:00:00 5.4 13 Oeste 38 Oeste 0 -- -- 77
2019-02-10 09:00:00 3.1 6 Sudoeste 14 Sudoeste 0 -- -- 86
2019-02-10 08:00:00 2.2 4 Sur 9 Sur 0 -- -- 87
2019-02-10 07:00:00 3.1 4 Sudoeste 12 Sudoeste 0 -- -- 85
2019-02-10 06:00:00 3.4 5 Sudoeste 11 Sudoeste 0 -- -- 84
2019-02-10 05:00:00 3.8 3 Sur 17 Sudoeste 0 -- -- 83
2019-02-10 04:00:00 4.4 9 Sudoeste 24 Sudoeste 0 -- -- 81
2019-02-10 03:00:00 5.3 9 Sudoeste 26 Sudoeste 0 -- -- 76
2019-02-10 02:00:00 6.4 10 Sudoeste 35 Sudoeste 0 -- -- 70
2019-02-10 01:00:00 5.7 14 Oeste 35 Sudoeste 0 -- -- 77
2019-02-10 00:00:00 6.3 17 Sudoeste 39 Sudoeste 0 -- -- 77
2019-02-09 23:00:00 6 15 Sudoeste 35 Sudoeste 0 -- -- 80
2019-02-09 22:00:00 6.3 17 Sudoeste 36 Oeste 0 -- -- 79
2019-02-09 21:00:00 4.6 6 Sudoeste 16 Sudoeste 0 -- -- 84
2019-02-09 20:00:00 4.4 0 Calma 4 Norte 0 -- -- 78
2019-02-09 19:00:00 6.2 0 Calma 11 Sudeste 0 -- -- 71
2019-02-09 18:00:00 9.9 6 Sudoeste 22 Sudoeste 0 -- -- 57
2019-02-09 17:00:00 11.8 9 Sudoeste 24 Oeste 0 -- -- 52
2019-02-09 16:00:00 12.9 11 Oeste 21 Sudoeste 0 -- -- 44
2019-02-09 15:00:00 12.8 6 Sudeste 21 Este 0 -- -- 50
2019-02-09 14:00:00 12.8 10 Sudeste 21 Sudeste 0 -- -- 50
2019-02-09 13:00:00 12.8 5 Sudeste 13 Sudeste 0 -- -- 49
2019-02-09 12:00:00 11.5 5 Sudoeste 13 Sudoeste 0 -- -- 51
2019-02-09 11:00:00 7.5 4 Sudoeste 8 Sur 0 -- -- 70
2019-02-09 10:00:00 2.1 2 Sur 10 Sudoeste 0 -- -- 88
2019-02-09 09:00:00 0.4 5 Sudoeste 9 Sudoeste 0 -- -- 92
2019-02-09 08:00:00 1.7 5 Nordeste 14 Este 0 -- -- 78
2019-02-09 07:00:00 1.7 7 Nordeste 15 Nordeste 0 -- -- 77
2019-02-09 06:00:00 1.8 8 Nordeste 14 Este 0 -- -- 78
2019-02-09 05:00:00 0.5 3 Nordeste 9 Este 0 -- -- 90
2019-02-09 04:00:00 -0.5 3 Norte 6 Norte 0 -- -- 100
2019-02-09 03:00:00 -0.4 2 Sudoeste 9 Sudoeste 0 -- -- 100
2019-02-09 02:00:00 0.2 5 Sudoeste 14 Sudoeste 0 -- -- 100
2019-02-09 01:00:00 0.7 3 Sur 14 Sudoeste 0 -- -- 99
2019-02-09 00:00:00 1.3 5 Sudoeste 14 Sudoeste 0 -- -- 95
2019-02-08 23:00:00 2.1 6 Sur 13 Sudoeste 0 -- -- 93
2019-02-08 22:00:00 3.2 5 Sur 15 Sur 0 -- -- 88
2019-02-08 21:00:00 4.8 7 Sudoeste 16 Sudoeste 0 -- -- 81
2019-02-08 20:00:00 7.2 9 Sudoeste 30 Oeste 0 -- -- 72
2019-02-08 19:00:00 8.6 4 Oeste 21 Oeste 0 -- -- 65
2019-02-08 18:00:00 9.8 8 Sudoeste 26 Oeste 0 -- -- 66
2019-02-08 17:00:00 10.5 12 Sudoeste 26 Sudoeste 0 -- -- 69
2019-02-08 16:00:00 11.3 13 Sudoeste 25 Sudoeste 0 -- -- 65
2019-02-08 15:00:00 12.8 11 Sudoeste 21 Oeste 0 -- -- 58
2019-02-08 14:00:00 11.2 12 Sudoeste 30 Sudoeste 0 -- -- 64
2019-02-08 13:00:00 9.5 15 Sudoeste 30 Sudoeste 0 -- -- 72
2019-02-08 12:00:00 7.8 15 Sudoeste 31 Sudoeste 0 -- -- 80
2019-02-08 11:00:00 6.3 13 Sudoeste 28 Sudoeste 0 -- -- 84
2019-02-08 10:00:00 5.2 6 Sudoeste 15 Sudoeste 0 -- -- 94
2019-02-08 09:00:00 4.3 0 Calma 5 Nordeste 0 -- -- 88
2019-02-08 08:00:00 4.1 4 Nordeste 8 Nordeste 0 -- -- 85
2019-02-08 07:00:00 4.2 3 Nordeste 7 Norte 0 -- -- 90
2019-02-08 06:00:00 4.6 3 Nordeste 10 Norte 0 -- -- 90
2019-02-08 05:00:00 5.6 3 Nordeste 11 Oeste 0 -- -- 90
2019-02-08 04:00:00 6.2 2 Sudoeste 12 Sudoeste 0 -- -- 93
2019-02-08 03:00:00 6.4 5 Sudoeste 10 Sudoeste 0 -- -- 93
2019-02-08 02:00:00 6 4 Sur 10 Sudoeste 0 -- -- 97
2019-02-08 01:00:00 6.3 0 Calma 6 Nordeste 0 -- -- 96
2019-02-08 00:00:00 6.4 3 Nordeste 7 Nordeste 0 -- -- 96
2019-02-07 23:00:00 6.1 0 Calma 5 Nordeste 0 -- -- 95
2019-02-07 22:00:00 6.4 0 Calma 3 Nordeste 0 -- -- 94
2019-02-07 21:00:00 7.2 2 Nordeste 8 Nordeste 0 -- -- 92
2019-02-07 20:00:00 7.5 5 Este 11 Sudeste 0 -- -- 92
2019-02-07 19:00:00 8 4 Este 10 Este 0 -- -- 91
2019-02-07 18:00:00 8.6 3 Nordeste 10 Este 0 -- -- 89
2019-02-07 17:00:00 9.1 5 Nordeste 11 Este 0 -- -- 86
2019-02-07 16:00:00 9.6 6 Este 16 Este 0 -- -- 86
2019-02-07 15:00:00 11.1 9 Sudeste 17 Sudeste 0 -- -- 78
2019-02-07 14:00:00 11.2 12 Sur 21 Sur 0 -- -- 73
2019-02-07 13:00:00 12.5 9 Sur 20 Sudoeste 0 -- -- 68
2019-02-07 12:00:00 11.3 8 Sudoeste 14 Sudoeste 0 -- -- 65
2019-02-07 11:00:00 6.1 4 Sudoeste 9 Sudoeste 0 -- -- 87
2019-02-07 10:00:00 2.6 3 Sudoeste 8 Sudeste 0 -- -- 100
2019-02-07 09:00:00 0 0 Calma 5 Sudeste 0 -- -- 100
2019-02-07 08:00:00 -0.5 0 Calma 8 Sudeste 0 -- -- 98
2019-02-07 07:00:00 0.1 3 Este 9 Nordeste 0 -- -- 98
2019-02-07 06:00:00 0 5 Nordeste 10 Nordeste 0 -- -- 100
2019-02-07 05:00:00 -1.2 2 Nordeste 6 Este 0 -- -- 100
2019-02-07 04:00:00 -1.5 0 Calma 5 Sudeste 0 -- -- 100
2019-02-07 03:00:00 -1 0 Calma -- -- 0 -- -- 100
2019-02-07 02:00:00 -0.2 0 Calma 4 Sudoeste 0 -- -- 100
2019-02-07 01:00:00 -0.3 2 Sur 4 Sur 0 -- -- 100
2019-02-07 00:00:00 0.3 0 Calma 3 Sur 0 -- -- 99
2019-02-06 23:00:00 1.1 0 Calma 3 Nordeste 0 -- -- 98
2019-02-06 22:00:00 2.1 0 Calma 4 Nordeste 0 -- -- 97
2019-02-06 21:00:00 3.4 0 Calma 5 Este 0 -- -- 94
2019-02-06 20:00:00 5.1 0 Calma 6 Nordeste 0 -- -- 90
2019-02-06 19:00:00 7.1 0 Calma 3 Norte 0 -- -- 84
2019-02-06 18:00:00 10 0 Calma 12 Nordeste 0 -- -- 75
2019-02-06 17:00:00 11.7 8 Este 16 Este 0 -- -- 70
2019-02-06 16:00:00 12.8 8 Sudeste 18 Sudeste 0 -- -- 62
2019-02-06 15:00:00 14.3 10 Sudeste 21 Sudeste 0 -- -- 54
2019-02-06 14:00:00 14.6 8 Este 18 Sudeste 0 -- -- 50
2019-02-06 13:00:00 14 5 Este 13 Este 0 -- -- 52
2019-02-06 12:00:00 11.6 3 Sur 5 Sur 0 -- -- 63
2019-02-06 11:00:00 6.8 2 Sur 5 Sur 0 -- -- 84
2019-02-06 10:00:00 0.3 3 Sur 6 Sudoeste 0 -- -- 100
2019-02-06 09:00:00 -2 0 Calma 3 Sudoeste 0 -- -- 100
2019-02-06 08:00:00 -2.5 0 Calma 6 Sudoeste 0 -- -- 100
2019-02-06 07:00:00 -2.1 0 Calma 5 Sudoeste 0 -- -- 100
2019-02-06 06:00:00 -2 2 Oeste 4 Sur 0 -- -- 100
2019-02-06 05:00:00 -1.8 2 Sur 5 Este 0 -- -- 99
2019-02-06 04:00:00 -1.8 0 Calma 4 Sudeste 0 -- -- 99
2019-02-06 03:00:00 -1.7 0 Calma 5 Sur 0 -- -- 98
2019-02-06 02:00:00 -1.3 0 Calma 10 Sudoeste 0 -- -- 96
2019-02-06 01:00:00 -0.1 0 Calma 7 Este 0 -- -- 94
2019-02-06 00:00:00 0.3 2 Sur 9 Este 0 -- -- 90
2019-02-05 23:00:00 2.1 5 Este 10 Nordeste 0 -- -- 88
2019-02-05 22:00:00 1.7 0 Calma 9 Este 0 -- -- 86
2019-02-05 21:00:00 3.2 3 Nordeste 12 Este 0 -- -- 83
2019-02-05 20:00:00 3.2 3 Este 7 Sudeste 0 -- -- 83
2019-02-05 19:00:00 5.1 2 Nordeste 7 Nordeste 0 -- -- 75
2019-02-05 18:00:00 8.9 0 Calma 13 Este 0 -- -- 63
2019-02-05 17:00:00 11.8 6 Sudeste 16 Este 0 -- -- 48
2019-02-05 16:00:00 12.5 7 Este 15 Sudeste 0 -- -- 44
2019-02-05 15:00:00 13.5 6 Este 14 Este 0 -- -- 43
2019-02-05 14:00:00 12 3 Nordeste 11 Este 0 -- -- 48
2019-02-05 13:00:00 11.6 4 Norte 13 Norte 0 -- -- 54
2019-02-05 12:00:00 9.1 6 Norte 14 Norte 0 -- -- 65
2019-02-05 11:00:00 4.7 4 Oeste 15 Sudoeste 0 -- -- 68
2019-02-05 10:00:00 1.6 4 Sur 8 Oeste 0 -- -- 83
2019-02-05 09:00:00 0.8 3 Oeste 11 Sudoeste 0 -- -- 84
2019-02-05 08:00:00 0.4 4 Sudoeste 9 Sur 0 -- -- 87
2019-02-05 07:00:00 0.5 3 Sudoeste 8 Sudoeste 0 -- -- 80
2019-02-05 06:00:00 0.2 3 Sudoeste 6 Sur 0 -- -- 80
2019-02-05 05:00:00 0.5 3 Sur 9 Sur 0 -- -- 76
2019-02-05 04:00:00 0.6 3 Oeste 10 Sudoeste 0 -- -- 73
2019-02-05 03:00:00 0.9 3 Oeste 9 Sudoeste 0 -- -- 70
2019-02-05 02:00:00 1 0 Calma 8 Sur 0 -- -- 69
2019-02-05 01:00:00 0.9 3 Sudoeste 9 Sur 0 -- -- 67
2019-02-05 00:00:00 0.7 5 Sudoeste 11 Sur 0 -- -- 69
2019-02-04 23:00:00 0.5 2 Sudoeste 5 Sur 0 -- -- 72
2019-02-04 22:00:00 0.8 0 Calma 8 Sudeste 0 -- -- 67
2019-02-04 21:00:00 0.3 0 Calma 4 Este 0 -- -- 67
2019-02-04 20:00:00 0 0 Calma 3 Sudeste 0 -- -- 69
2019-02-04 19:00:00 0.8 0 Calma 3 Nordeste 0 -- -- 62
2019-02-04 18:00:00 4.2 0 Calma 13 Este 0 -- -- 51
2019-02-04 17:00:00 7.3 5 Este 14 Este 0 -- -- 32
2019-02-04 16:00:00 8.7 10 Este 17 Sudeste 0 -- -- 27
2019-02-04 15:00:00 9.6 10 Este 20 Sudeste 0 -- -- 22
2019-02-04 14:00:00 11 6 Oeste 16 Oeste 0 -- -- 16
2019-02-04 13:00:00 9.6 7 Sudoeste 18 Oeste 0 -- -- 16
2019-02-04 12:00:00 6.8 9 Sudoeste 19 Oeste 0 -- -- 20
2019-02-04 11:00:00 3 6 Sudoeste 17 Sudoeste 0 -- -- 35
2019-02-04 10:00:00 -2.3 9 Sudoeste 18 Sudoeste 0 -- -- 50
2019-02-04 09:00:00 -4.2 6 Sudoeste 14 Oeste 0 -- -- 56
2019-02-04 08:00:00 -4 3 Oeste 17 Sur 0 -- -- 54
2019-02-04 07:00:00 -2.6 9 Sur 22 Oeste 0 -- -- 44
2019-02-04 06:00:00 -3.6 3 Sur 12 Sur 0 -- -- 51
2019-02-04 05:00:00 -2.8 4 Sur 17 Sudoeste 0 -- -- 47
2019-02-04 04:00:00 -1.6 5 Sur 22 Norte 0 -- -- 41
2019-02-04 03:00:00 3.8 6 Oeste 37 Oeste 0 -- -- 22
2019-02-04 02:00:00 3.9 7 Norte 35 Noroeste 0 -- -- 18
2019-02-04 01:00:00 3.5 11 Oeste 43 Noroeste 0 -- -- 19
2019-02-04 00:00:00 3.4 19 Norte 68 Oeste 0 -- -- 19
2019-02-03 23:00:00 3.3 15 Noroeste 55 Norte 0 -- -- 22
2019-02-03 22:00:00 2.4 16 Norte 47 Noroeste 0 -- -- 30
2019-02-03 21:00:00 -0.6 10 Norte 33 Norte 0 -- -- 39
2019-02-03 20:00:00 -0.1 3 Sudoeste 24 Norte 0 -- -- 53
2019-02-03 19:00:00 2.4 6 Nordeste 45 Nordeste 0 -- -- 34
2019-02-03 18:00:00 2.8 21 Norte 62 Norte 0 -- -- 35
2019-02-03 17:00:00 3.9 15 Noroeste 53 Oeste 0 -- -- 34
2019-02-03 16:00:00 4.1 14 Norte 57 Oeste 0 -- -- 32
2019-02-03 15:00:00 4.6 15 Norte 49 Nordeste 0 -- -- 31
2019-02-03 14:00:00 4.6 10 Norte 51 Norte 0 -- -- 31
2019-02-03 13:00:00 4.3 18 Norte 57 Nordeste 0 -- -- 26
2019-02-03 12:00:00 3.4 17 Noroeste 61 Norte 0 -- -- 30
2019-02-03 11:00:00 2.8 19 Noroeste 51 Oeste 0 -- -- 31
2019-02-03 10:00:00 2.3 12 Noroeste 46 Nordeste 0 -- -- 30
2019-02-03 09:00:00 1.7 15 Noroeste 50 Norte 0 -- -- 24
2019-02-03 08:00:00 0.9 12 Norte 41 Noroeste 0 -- -- 26
2019-02-03 07:00:00 1.2 12 Norte 35 Norte 0 -- -- 25
2019-02-03 06:00:00 1.5 11 Norte 31 Oeste 0 -- -- 27
2019-02-03 05:00:00 1.6 9 Norte 34 Norte 0 -- -- 29
2019-02-03 04:00:00 -2.2 3 Sur 9 Sudoeste 0 -- -- 63
2019-02-03 03:00:00 -2.3 3 Sur 9 Sudoeste 0 -- -- 73
2019-02-03 02:00:00 -0.6 5 Sur 30 Nordeste 0 -- -- 66
2019-02-03 01:00:00 2 4 Sudoeste 36 Norte 0 -- -- 50
2019-02-03 00:00:00 3 10 Norte 35 Norte 0 -- -- 37
2019-02-02 23:00:00 3 9 Norte 33 Este 0 -- -- 37
2019-02-02 22:00:00 3.3 12 Noroeste 42 Oeste 0 -- -- 37
2019-02-02 21:00:00 3 14 Oeste 49 Oeste 0 -- -- 43
2019-02-02 20:00:00 1.4 3 Oeste 20 Noroeste 0.2 -- -- 75
2019-02-02 19:00:00 2.4 6 Nordeste 17 Noroeste 0 -- -- 85
2019-02-02 18:00:00 3.4 5 Norte 12 Sur 0 -- -- 90
2019-02-02 17:00:00 3 3 Sudoeste 12 Noroeste 0 -- -- 95
2019-02-02 16:00:00 2.9 6 Nordeste 10 Nordeste 0 -- -- 94
2019-02-02 15:00:00 3.2 6 Sudeste 14 Este 0 -- -- 90
2019-02-02 14:00:00 3.7 6 Nordeste 14 Sur 0 -- -- 88
2019-02-02 13:00:00 3.3 5 Este 13 Sur 0 -- -- 87
2019-02-02 12:00:00 3.1 6 Sudoeste 26 Oeste 0 -- -- 86
2019-02-02 11:00:00 2.1 11 Sudoeste 26 Oeste 0 -- -- 94
2019-02-02 10:00:00 1.3 9 Sudoeste 19 Sudoeste 0 -- -- 100
2019-02-02 09:00:00 0.8 6 Sudoeste 16 Sudoeste 0 -- -- 100
2019-02-02 08:00:00 0.6 4 Sudoeste 9 Oeste 0.2 -- -- 100
2019-02-02 07:00:00 0.4 2 Oeste 8 Sudoeste 0.2 -- -- 100
2019-02-02 06:00:00 0.4 3 Sur 15 Oeste 4 -- -- 99
2019-02-02 05:00:00 1.1 6 Sudoeste 19 Oeste 0.6 -- -- 98
2019-02-02 04:00:00 1.3 4 Sudoeste 17 Sudoeste 0 -- -- 97
2019-02-02 03:00:00 1.6 7 Sudoeste 24 Sudoeste 0 -- -- 94
2019-02-02 02:00:00 2.2 9 Oeste 31 Oeste 0 -- -- 92
2019-02-02 01:00:00 3.2 8 Oeste 38 Oeste 0 -- -- 91
2019-02-02 00:00:00 3.6 17 Sudoeste 47 Oeste 0 -- -- 87
2019-02-01 23:00:00 3.4 20 Sudoeste 42 Sur 0 -- -- 85
2019-02-01 22:00:00 3.7 9 Sudoeste 29 Sudoeste 0 -- -- 75
2019-02-01 21:00:00 4.5 15 Sudoeste 31 Sudoeste 0 -- -- 73
2019-02-01 20:00:00 5 11 Oeste 35 Sudoeste 0 -- -- 69
2019-02-01 19:00:00 5.6 9 Sudoeste 39 Sudoeste 0 -- -- 67
2019-02-01 18:00:00 7.6 16 Oeste 44 Sudoeste 0 -- -- 61
2019-02-01 17:00:00 8.8 14 Sudoeste 35 Sudoeste 0 -- -- 64
2019-02-01 16:00:00 9.3 13 Sudoeste 39 Sudoeste 0 -- -- 64
2019-02-01 15:00:00 10.5 13 Sudoeste 34 Sudoeste 0 -- -- 62
2019-02-01 14:00:00 9.6 22 Sudoeste 41 Oeste 0 -- -- 68
2019-02-01 13:00:00 8.7 17 Sudoeste 36 Oeste 0 -- -- 77
2019-02-01 12:00:00 8.2 10 Sudoeste 35 Oeste 0.2 -- -- 87
2019-02-01 11:00:00 7.1 15 Sudoeste 32 Sudoeste 1 -- -- 99
2019-02-01 10:00:00 6.9 9 Sudoeste 20 Oeste 1 -- -- 100
2019-02-01 09:00:00 6.7 8 Sudoeste 21 Sudoeste 0.6 -- -- 100
2019-02-01 08:00:00 6.8 10 Sudoeste 23 Sudoeste 0.6 -- -- 100
2019-02-01 07:00:00 6.8 10 Sudoeste 22 Sudoeste 1.4 -- -- 100
2019-02-01 06:00:00 7 8 Sudoeste 30 Sudoeste 0.8 -- -- 97
2019-02-01 05:00:00 7.4 15 Sudoeste 32 Oeste 0 -- -- 92
2019-02-01 04:00:00 7.6 9 Sudoeste 30 Sudoeste 0 -- -- 89
2019-02-01 03:00:00 7.8 13 Sudoeste 33 Oeste 0 -- -- 87
2019-02-01 02:00:00 8 13 Oeste 33 Oeste 0 -- -- 87
2019-02-01 01:00:00 7.2 9 Oeste 33 Oeste 0 -- -- 90
2019-02-01 00:00:00 6.5 10 Sudoeste 31 Sudoeste 0 -- -- 94
2019-01-31 23:00:00 6.3 14 Sudoeste 29 Sudoeste 0 -- -- 94
2019-01-31 22:00:00 5.1 13 Sudoeste 30 Sudoeste 0 -- -- 95
2019-01-31 21:00:00 4.9 10 Sudoeste 23 Sudoeste 0 -- -- 94
2019-01-31 20:00:00 5.4 5 Sudoeste 35 Oeste 0 -- -- 89
2019-01-31 19:00:00 6.6 17 Oeste 44 Oeste 0 -- -- 85
2019-01-31 18:00:00 7.1 15 Oeste 37 Sudoeste 0 -- -- 82
2019-01-31 17:00:00 7.6 9 Sudoeste 32 Sudoeste 0 -- -- 79
2019-01-31 16:00:00 8.8 10 Sudoeste 26 Sudoeste 0 -- -- 70
2019-01-31 15:00:00 8.6 11 Sudoeste 26 Sudoeste 0 -- -- 68
2019-01-31 14:00:00 7.9 11 Sudoeste 28 Sudoeste 0 -- -- 66
2019-01-31 13:00:00 6.4 12 Sudoeste 30 Sudoeste 0 -- -- 67
2019-01-31 12:00:00 5 13 Sudoeste 34 Sudoeste 0 -- -- 70
2019-01-31 11:00:00 2.2 10 Sudoeste 23 Oeste 0 -- -- 78
2019-01-31 10:00:00 -1.2 10 Sudoeste 26 Sudoeste 0 -- -- 97
2019-01-31 09:00:00 -2.2 10 Sudoeste 24 Sudoeste 0 -- -- 96
2019-01-31 08:00:00 -2.1 12 Sudoeste 26 Sudoeste 0 -- -- 94
2019-01-31 07:00:00 -1.8 13 Sudoeste 24 Sudoeste 0 -- -- 91
2019-01-31 06:00:00 -0.9 9 Sudoeste 27 Oeste 0 -- -- 85
2019-01-31 05:00:00 0.7 10 Oeste 33 Oeste 0 -- -- 76
2019-01-31 04:00:00 0.6 17 Oeste 37 Oeste 0 -- -- 76
2019-01-31 03:00:00 0.7 14 Oeste 36 Oeste 0 -- -- 75
2019-01-31 02:00:00 0.8 19 Oeste 35 Oeste 0 -- -- 77
2019-01-31 01:00:00 -1.3 7 Sudoeste 23 Sudoeste 0 -- -- 95
2019-01-31 00:00:00 -2.4 6 Sudoeste 12 Sudoeste 0 -- -- 99
2019-01-30 23:00:00 -2.6 3 Sur 7 Sur 0 -- -- 99
2019-01-30 22:00:00 -2 3 Este 12 Sudoeste 0 -- -- 99
2019-01-30 21:00:00 -2.2 6 Sudoeste 12 Sudoeste 0 -- -- 98
2019-01-30 20:00:00 -1.7 0 Calma 3 Sudeste 0 -- -- 92
2019-01-30 19:00:00 0 2 Este 5 Nordeste 0 -- -- 88
2019-01-30 18:00:00 2.4 0 Calma 13 Nordeste 0 -- -- 80
2019-01-30 17:00:00 4.2 6 Nordeste 9 Nordeste 0 -- -- 71
2019-01-30 16:00:00 5 7 Este 16 Nordeste 0 -- -- 68
2019-01-30 15:00:00 6.2 10 Nordeste 21 Sur 0 -- -- 62
2019-01-30 14:00:00 7.2 9 Sur 19 Sur 0 -- -- 45
2019-01-30 13:00:00 6.6 9 Sur 23 Sudoeste 0 -- -- 49
2019-01-30 12:00:00 5.1 8 Sudoeste 19 Sudoeste 0 -- -- 53
2019-01-30 11:00:00 1.6 7 Sudoeste 16 Sur 0 -- -- 74
2019-01-30 10:00:00 -2.4 7 Sudoeste 18 Sudoeste 0 -- -- 98
2019-01-30 09:00:00 -2.8 9 Sudoeste 23 Sudoeste 0 -- -- 100
2019-01-30 08:00:00 -2.6 7 Sudoeste 24 Sudoeste 0 -- -- 99
2019-01-30 07:00:00 -2.4 6 Sudoeste 21 Oeste 0 -- -- 96
2019-01-30 06:00:00 -2.4 6 Sudoeste 17 Sudoeste 0 -- -- 93
2019-01-30 05:00:00 -2 6 Sudoeste 23 Sudoeste 0 -- -- 91
2019-01-30 04:00:00 -1.1 8 Sudoeste 23 Oeste 0 -- -- 80
2019-01-30 03:00:00 -1.4 4 Sudoeste 17 Sudoeste 0 -- -- 98
2019-01-30 02:00:00 -0.3 12 Oeste 28 Sudoeste 0 -- -- 96
2019-01-30 01:00:00 0 13 Oeste 31 Oeste 0 -- -- 96
2019-01-30 00:00:00 0.2 16 Sudoeste 31 Oeste 0 -- -- 95
2019-01-29 23:00:00 0.2 11 Oeste 31 Sudoeste 0 -- -- 95
2019-01-29 22:00:00 0.5 13 Oeste 33 Oeste 0 -- -- 95
2019-01-29 21:00:00 0.6 15 Oeste 39 Oeste 0 -- -- 93
2019-01-29 20:00:00 0.7 19 Sudoeste 43 Oeste 0 -- -- 94
2019-01-29 19:00:00 0.6 20 Sudoeste 42 Sudoeste 0 -- -- 94
2019-01-29 18:00:00 0.7 15 Sudoeste 32 Oeste 0 -- -- 94
2019-01-29 17:00:00 0.7 17 Sudoeste 39 Oeste 0 -- -- 94
2019-01-29 16:00:00 1 19 Sudoeste 41 Sudoeste 0 -- -- 90
2019-01-29 15:00:00 1.2 13 Sudoeste 28 Sudoeste 0 -- -- 87
2019-01-29 14:00:00 1.2 9 Sudoeste 24 Sudoeste 0 -- -- 89
2019-01-29 13:00:00 0.7 8 Sudoeste 19 Sudoeste 0 -- -- 90
2019-01-29 12:00:00 0.1 4 Sudoeste 14 Sudoeste 0 -- -- 90
2019-01-29 11:00:00 -0.5 6 Sudoeste 11 Sudoeste 0 -- -- 94
2019-01-29 10:00:00 -2.2 4 Sur 7 Sur 0 -- -- 99
2019-01-29 09:00:00 -- 0 Calma 6 Sudoeste 0 -- -- --
2019-01-29 08:00:00 -3 0 Calma 8 Sudeste 0 -- -- 97
2019-01-29 07:00:00 -3.5 4 Sur 9 Este 0 -- -- 96
2019-01-29 06:00:00 -4 3 Este 6 Sur 0 -- -- 96
2019-01-29 05:00:00 -3.3 4 Este 10 Este 0 -- -- 93
2019-01-29 04:00:00 -1.9 3 Sudoeste 12 Sudoeste 0 -- -- 92
2019-01-29 03:00:00 -0.7 3 Sudoeste 19 Noroeste 0 -- -- 87
2019-01-29 02:00:00 2.1 7 Norte 23 Sudeste 0 -- -- 70
2019-01-29 01:00:00 3.6 9 Oeste 29 Norte 0 -- -- 57
2019-01-29 00:00:00 2.4 8 Noroeste 33 Oeste 0 -- -- 65
2019-01-28 23:00:00 1.4 9 Noroeste 22 Noroeste 0 -- -- 86
2019-01-28 22:00:00 0.4 8 Oeste 16 Oeste 0 -- -- 100
2019-01-28 21:00:00 0.5 9 Sudoeste 19 Oeste 0.4 -- -- 99
2019-01-28 20:00:00 0.6 7 Sudoeste 24 Oeste 0.6 -- -- 100
2019-01-28 19:00:00 0.2 8 Oeste 17 Oeste 2 -- -- 100
2019-01-28 18:00:00 0.8 8 Sudoeste 18 Sudoeste 0.4 -- -- 100
2019-01-28 17:00:00 0.6 6 Noroeste 18 Oeste 1.2 -- -- 100
2019-01-28 16:00:00 1 4 Sudoeste 15 Oeste 1 -- -- 100
2019-01-28 15:00:00 1.2 6 Oeste 31 Oeste 0.8 -- -- 99
2019-01-28 14:00:00 1.4 4 Sudoeste 20 Sudoeste 0 -- -- 98
2019-01-28 13:00:00 0.6 9 Sudoeste 24 Sudoeste 1 -- -- 99
2019-01-28 12:00:00 0 6 Sudoeste 20 Sudoeste 0.8 -- -- 98
2019-01-28 11:00:00 0.5 6 Sudoeste 18 Sudoeste 0.4 -- -- 95
2019-01-28 10:00:00 1 7 Sudoeste 24 Sudoeste 0 -- -- 79
2019-01-28 09:00:00 -1.1 8 Sudoeste 17 Sudoeste 0 -- -- 84
2019-01-28 08:00:00 -2 8 Sudoeste 21 Sudoeste 0 -- -- 80
2019-01-28 07:00:00 -3.1 7 Sudoeste 13 Sudoeste 0 -- -- 87
2019-01-28 06:00:00 -3.4 2 Sudoeste 14 Sudoeste 0 -- -- 88
2019-01-28 05:00:00 -4 5 Sudoeste 10 Sudoeste 0 -- -- 94
2019-01-28 04:00:00 -2.9 5 Este 12 Sudeste 0 -- -- 88
2019-01-28 03:00:00 -2.1 3 Nordeste 16 Nordeste 0 -- -- 88
2019-01-28 02:00:00 -1.8 4 Nordeste 11 Nordeste 0 -- -- 82
2019-01-28 01:00:00 -1.7 4 Nordeste 8 Este 0 -- -- 80
2019-01-28 00:00:00 -1 4 Nordeste 15 Nordeste 0 -- -- 73
2019-01-27 23:00:00 -0.2 3 Sudeste 10 Nordeste 0 -- -- 66
2019-01-27 22:00:00 -- 6 Nordeste 21 Sudeste 0 -- -- --
2019-01-27 21:00:00 4.1 8 Noroeste 30 Sudoeste 0 -- -- 37
2019-01-27 20:00:00 4.6 6 Norte 29 Oeste 0 -- -- 37
2019-01-27 19:00:00 4.7 9 Oeste 30 Oeste 0 -- -- 50
2019-01-27 18:00:00 6.1 14 Sudoeste 37 Sudoeste 0 -- -- 40
2019-01-27 17:00:00 7.1 9 Noroeste 31 Oeste 0 -- -- 47
2019-01-27 16:00:00 6.5 4 Sudoeste 12 Este 0 -- -- 79
2019-01-27 15:00:00 6.9 6 Sudeste 17 Sur 0 -- -- 80
2019-01-27 14:00:00 6.6 8 Sudeste 17 Este 0.2 -- -- 82
2019-01-27 13:00:00 7.9 8 Sudeste 15 Este 0 -- -- 72
2019-01-27 12:00:00 6.3 6 Nordeste 11 Nordeste 0 -- -- 78
2019-01-27 11:00:00 1.9 0 Calma 7 Sudoeste 0 -- -- 87
2019-01-27 10:00:00 0.5 2 Nordeste 14 Este 0 -- -- 88
2019-01-27 09:00:00 -0.4 7 Nordeste 12 Este 0 -- -- 86
2019-01-27 08:00:00 -0.8 7 Nordeste 12 Nordeste 0 -- -- 86
2019-01-27 07:00:00 -1.6 0 Calma 9 Este 0 -- -- 90
2019-01-27 06:00:00 -1.9 3 Este 6 Sudeste 0 -- -- 100
2019-01-27 05:00:00 -2.4 0 Calma 3 Sur 0 -- -- 100
2019-01-27 04:00:00 -2.4 0 Calma 5 Sudoeste 0 -- -- 99
2019-01-27 03:00:00 -2.1 0 Calma 5 Este 0 -- -- 100
2019-01-27 02:00:00 -1.3 0 Calma 8 Sudoeste 0 -- -- 100
2019-01-27 01:00:00 -1.3 2 Sur 5 Sur 0 -- -- 100
2019-01-27 00:00:00 -1.4 2 Sudoeste 8 Sudoeste 0 -- -- 99
2019-01-26 23:00:00 -1.3 2 Sudoeste 5 Sur 0 -- -- 97
2019-01-26 22:00:00 -0.4 0 Calma 5 Sur 0 -- -- 95
2019-01-26 21:00:00 0.5 0 Calma 3 Sur 0 -- -- 91
2019-01-26 20:00:00 2.3 0 Calma 5 Sudoeste 0 -- -- 90
2019-01-26 19:00:00 3.7 4 Sur 8 Sudoeste 0 -- -- 83
2019-01-26 18:00:00 6.4 2 Sur 10 Sudoeste 0 -- -- 70
2019-01-26 17:00:00 10.7 5 Sur 21 Oeste 0 -- -- 57
2019-01-26 16:00:00 12.3 10 Sudoeste 20 Sudoeste 0 -- -- 53
2019-01-26 15:00:00 12.8 6 Sudeste 13 Sudeste 0 -- -- 47
2019-01-26 14:00:00 12.8 8 Sudeste 15 Sudeste 0 -- -- 47
2019-01-26 13:00:00 13.8 6 Este 10 Este 0 -- -- 48
2019-01-26 12:00:00 10.2 2 Sur 10 Sur 0 -- -- 48
2019-01-26 11:00:00 4.7 6 Sur 11 Sur 0 -- -- 69
2019-01-26 10:00:00 -1.5 3 Sur 7 Sur 0 -- -- 92
2019-01-26 09:00:00 -1.9 2 Sur 12 Sur 0 -- -- 90
2019-01-26 08:00:00 -1.2 5 Sudoeste 19 Norte 0 -- -- 87
2019-01-26 07:00:00 -0.8 6 Sudeste 20 Noroeste 0 -- -- 86
2019-01-26 06:00:00 -1.5 4 Sudoeste 9 Noroeste 0 -- -- 88
2019-01-26 05:00:00 -0.6 4 Este 11 Sur 0 -- -- 85
2019-01-26 04:00:00 0.8 3 Sudoeste 13 Sur 0 -- -- 78
2019-01-26 03:00:00 1.5 6 Sudoeste 12 Sur 0 -- -- 75
2019-01-26 02:00:00 3.9 5 Sudeste 13 Oeste 0 -- -- 65
2019-01-26 01:00:00 6 6 Sudoeste 16 Este 0 -- -- 57
2019-01-26 00:00:00 11.2 7 Noroeste 35 Noroeste 0 -- -- 40
2019-01-25 23:00:00 11.5 10 Noroeste 49 Oeste 0 -- -- 39
2019-01-25 22:00:00 11.3 12 Noroeste 45 Nordeste 0 -- -- 42
2019-01-25 21:00:00 11.1 13 Norte 59 Norte 0 -- -- 43
2019-01-25 20:00:00 11.1 12 Nordeste 38 Norte 0 -- -- 41
2019-01-25 19:00:00 11.2 11 Este 44 Nordeste 0 -- -- 40
2019-01-25 18:00:00 11.6 19 Nordeste 44 Este 0 -- -- 38
2019-01-25 17:00:00 12.1 16 Nordeste 54 Nordeste 0 -- -- 39
2019-01-25 16:00:00 12.9 10 Nordeste 40 Norte 0 -- -- 38
2019-01-25 15:00:00 13.2 15 Nordeste 34 Nordeste 0 -- -- 38
2019-01-25 14:00:00 13.4 8 Nordeste 44 Este 0 -- -- 40
2019-01-25 13:00:00 11.9 13 Sudeste 27 Sudeste 0 -- -- 38
2019-01-25 12:00:00 10.3 8 Norte 36 Nordeste 0 -- -- 40
2019-01-25 11:00:00 10.5 14 Este 44 Sudeste 0 -- -- 40
2019-01-25 10:00:00 8.6 14 Sudeste 42 Sudeste 0 -- -- 41
2019-01-25 09:00:00 7.9 11 Este 45 Sur 0 -- -- 43
2019-01-25 08:00:00 6.7 17 Este 44 Este 0 -- -- 45
2019-01-25 07:00:00 6 15 Nordeste 52 Nordeste 0 -- -- 45
2019-01-25 06:00:00 4.9 15 Sudeste 45 Nordeste 0 -- -- 46
2019-01-25 05:00:00 4 15 Nordeste 28 Este 0 -- -- 40
2019-01-25 04:00:00 1.1 8 Sudeste 26 Nordeste 0 -- -- 40
2019-01-25 03:00:00 2.3 8 Este 23 Nordeste 0 -- -- 37
2019-01-25 02:00:00 2.1 8 Nordeste 27 Nordeste 0 -- -- 35
2019-01-25 01:00:00 1.6 5 Sudoeste 42 Nordeste 0 -- -- 32
2019-01-25 00:00:00 2.8 17 Nordeste 44 Nordeste 0 -- -- 22
2019-01-24 23:00:00 2.2 16 Nordeste 51 Oeste 0 -- -- 20
2019-01-24 22:00:00 2.1 16 Norte 54 Oeste 0 -- -- 21
2019-01-24 21:00:00 2.4 17 Noroeste 63 Noroeste 0 -- -- 28
2019-01-24 20:00:00 3.1 15 Norte 54 Nordeste 0 -- -- 24
2019-01-24 19:00:00 2.4 14 Norte 50 Norte 0 -- -- 27
2019-01-24 18:00:00 2.6 12 Norte 36 Noroeste 0 -- -- 26
2019-01-24 17:00:00 3.3 12 Norte 51 Norte 0 -- -- 28
2019-01-24 16:00:00 4.5 11 Nordeste 38 Oeste 0 -- -- 25
2019-01-24 15:00:00 4.9 13 Oeste 43 Oeste 0 -- -- 27
2019-01-24 14:00:00 5.5 16 Norte 44 Oeste 0 -- -- 24
2019-01-24 13:00:00 6.3 7 Sudoeste 34 Norte 0 -- -- 22
2019-01-24 12:00:00 4.9 11 Noroeste 42 Oeste 0 -- -- 25
2019-01-24 11:00:00 3.5 10 Nordeste 40 Norte 0 -- -- 29
2019-01-24 10:00:00 1 12 Norte 55 Norte 0 -- -- 39
2019-01-24 09:00:00 0.4 14 Norte 50 Norte 0 -- -- 40
2019-01-24 08:00:00 -0.6 11 Oeste 51 Noroeste 0 -- -- 44
2019-01-24 07:00:00 -0.6 12 Noroeste 51 Noroeste 0 -- -- 44
2019-01-24 06:00:00 -0.7 16 Noroeste 54 Noroeste 0 -- -- 49
2019-01-24 05:00:00 -2 12 Norte 38 Noroeste 0.2 -- -- 67
2019-01-24 04:00:00 -3.4 7 Oeste 23 Este 0.2 -- -- 90
2019-01-24 03:00:00 -3 5 Oeste 14 Sudoeste 0 -- -- 85
2019-01-24 02:00:00 -2.9 4 Oeste 19 Oeste 0 -- -- 82
2019-01-24 01:00:00 -2.2 6 Noroeste 25 Oeste 0 -- -- 73
2019-01-24 00:00:00 -1.9 7 Oeste 23 Oeste 0 -- -- 77
2019-01-23 23:00:00 -2.4 3 Norte 12 Noroeste 0.2 -- -- 93
2019-01-23 22:00:00 -1.9 4 Oeste 13 Norte 0.2 -- -- 89
2019-01-23 21:00:00 -1.5 4 Nordeste 10 Este 0.2 -- -- 97
2019-01-23 20:00:00 -1.2 0 Calma 5 Sur 0.8 -- -- 98
2019-01-23 19:00:00 -0.8 2 Sudeste 12 Sudoeste 0 -- -- 95
2019-01-23 18:00:00 -0.3 5 Este 14 Nordeste 0.2 -- -- 90
2019-01-23 17:00:00 0.2 3 Norte 19 Norte 0.8 -- -- 99
2019-01-23 16:00:00 0.8 4 Este 17 Sudoeste 0 -- -- 100
2019-01-23 15:00:00 0.3 6 Sudoeste 12 Sudoeste 0.6 -- -- 100
2019-01-23 14:00:00 0.1 3 Sudoeste 12 Oeste 0.2 -- -- 97
2019-01-23 13:00:00 -0.6 5 Sudoeste 14 Oeste 0 -- -- 98
2019-01-23 12:00:00 -1.6 5 Sudoeste 10 Sudoeste 0.4 -- -- 97
2019-01-23 11:00:00 -2.2 4 Sudoeste 14 Oeste 0.2 -- -- 97
2019-01-23 10:00:00 -2.5 6 Sudoeste 20 Sudoeste 0 -- -- 96
2019-01-23 09:00:00 -3 11 Sudoeste 23 Sudoeste 0 -- -- 97
2019-01-23 08:00:00 -3.2 7 Sudoeste 17 Oeste 0 -- -- 96
2019-01-23 07:00:00 -2.9 8 Sudoeste 20 Oeste 0 -- -- 94
2019-01-23 06:00:00 -3.5 8 Sudoeste 18 Sudoeste 0 -- -- 91
2019-01-23 05:00:00 -2.9 10 Sudoeste 22 Oeste 0 -- -- 86
2019-01-23 04:00:00 -2.4 9 Sudoeste 22 Sudoeste 0 -- -- 83
2019-01-23 03:00:00 -3.1 8 Sudoeste 15 Sudoeste 0 -- -- 90
2019-01-23 02:00:00 -3.5 6 Sudoeste 13 Sudoeste 0 -- -- 91
2019-01-23 01:00:00 -2.7 4 Sudoeste 11 Oeste 0 -- -- 86
2019-01-23 00:00:00 -2.1 2 Sudoeste 6 Sur 0 -- -- 82
2019-01-22 23:00:00 -2 2 Noroeste 9 Norte 0 -- -- 80
2019-01-22 22:00:00 -2.2 0 Calma 8 Sudeste 0 -- -- 82
2019-01-22 21:00:00 -1.5 0 Calma 6 Noroeste 0 -- -- 76
2019-01-22 20:00:00 -0.6 0 Calma 8 Sudoeste 0 -- -- 69
2019-01-22 19:00:00 -0.2 4 Sudoeste 10 Sudoeste 0 -- -- 64
2019-01-22 18:00:00 1.5 4 Sur 20 Oeste 0 -- -- 53
2019-01-22 17:00:00 3.2 6 Sudoeste 29 Sudoeste 0 -- -- 47
2019-01-22 16:00:00 3.9 13 Sudoeste 32 Sudoeste 0 -- -- 41
2019-01-22 15:00:00 4.9 10 Sudoeste 27 Oeste 0 -- -- 39
2019-01-22 14:00:00 5.3 12 Sudoeste 24 Sudoeste 0 -- -- 35
2019-01-22 13:00:00 4.6 8 Sudoeste 21 Oeste 0 -- -- 47
2019-01-22 12:00:00 -0.2 3 Sudoeste 11 Sur 0 -- -- 79
2019-01-22 11:00:00 -2.2 6 Sudoeste 12 Sur 0 -- -- 87
2019-01-22 10:00:00 -5.9 6 Sudoeste 19 Oeste 0 -- -- 100
2019-01-22 09:00:00 -7.5 2 Oeste 6 Sudeste 0 -- -- 98
2019-01-22 08:00:00 -6.8 3 Sur 5 Norte 0 -- -- 96
2019-01-22 07:00:00 -5.8 3 Norte 8 Norte 0 -- -- 91
2019-01-22 06:00:00 -5.5 2 Oeste 7 Sur 0 -- -- 100
2019-01-22 05:00:00 -6.5 0 Calma 7 Sudeste 0 -- -- 99
2019-01-22 04:00:00 -6.8 0 Calma 5 Sur 0 -- -- 95
2019-01-22 03:00:00 -5.7 3 Oeste 7 Sudeste 0 -- -- 95
2019-01-22 02:00:00 -5.7 0 Calma 5 Sudoeste 0 -- -- 93
2019-01-22 01:00:00 -4.6 0 Calma 5 Sur 0 -- -- 87
2019-01-22 00:00:00 -2.5 4 Nordeste 8 Nordeste 0 -- -- 78
2019-01-21 23:00:00 -2.6 3 Sudeste 7 Este 0 -- -- 80
2019-01-21 22:00:00 -1.6 0 Calma 11 Nordeste 0 -- -- 77
2019-01-21 21:00:00 -1.4 5 Nordeste 8 Nordeste 0 -- -- 77
2019-01-21 20:00:00 -1.9 0 Calma 6 Norte 0 -- -- 82
2019-01-21 19:00:00 -0.6 4 Nordeste 8 Nordeste 0 -- -- 78
2019-01-21 18:00:00 2.1 2 Este 14 Sudeste 0 -- -- 71
2019-01-21 17:00:00 5.6 0 Calma 9 Nordeste 0 -- -- 48
2019-01-21 16:00:00 6.1 4 Norte 15 Norte 0 -- -- 39
2019-01-21 15:00:00 6.9 8 Norte 22 Nordeste 0 -- -- 38
2019-01-21 14:00:00 5.8 6 Norte 21 Norte 0 -- -- 41
2019-01-21 13:00:00 8 6 Oeste 18 Norte 0 -- -- 46
2019-01-21 12:00:00 6.8 9 Nordeste 21 Norte 0 -- -- 48
2019-01-21 11:00:00 2.6 3 Sudeste 7 Sudeste 0 -- -- 100
2019-01-21 10:00:00 -1.3 3 Sur 9 Norte 0 -- -- 100
2019-01-21 09:00:00 -2.9 3 Sudeste 8 Sur 0 -- -- 100
2019-01-21 08:00:00 -3.9 3 Noroeste 10 Sudoeste 0 -- -- 100
2019-01-21 07:00:00 -4.3 3 Sudoeste 9 Sudoeste 0 -- -- 100
2019-01-21 06:00:00 -3.8 5 Sudoeste 10 Sudoeste 0 -- -- 100
2019-01-21 05:00:00 -4 4 Sudoeste 9 Sudoeste 0 -- -- 100
2019-01-21 04:00:00 -3.4 4 Sudoeste 11 Sudoeste 0 -- -- 100
2019-01-21 03:00:00 -3.2 0 Calma 8 Sur 0 -- -- 100
2019-01-21 02:00:00 -2.1 5 Sudoeste 15 Sudoeste 0 -- -- 100
2019-01-21 01:00:00 -2.9 3 Sudoeste 6 Sudeste 0 -- -- 99
2019-01-21 00:00:00 -2 0 Calma 5 Sudoeste 0 -- -- 99
2019-01-20 23:00:00 -1 2 Sur 9 Oeste 0 -- -- 96
2019-01-20 22:00:00 0.6 0 Calma 5 Nordeste 0 -- -- 99
2019-01-20 21:00:00 -0.4 2 Nordeste 5 Sudeste 0 -- -- 97
2019-01-20 20:00:00 0.2 3 Norte 10 Este 0 -- -- 91
2019-01-20 19:00:00 0.8 6 Nordeste 10 Este 0 -- -- 93
2019-01-20 18:00:00 2.4 3 Nordeste 7 Nordeste 0 -- -- 86
2019-01-20 17:00:00 4.6 3 Sudeste 10 Este 0 -- -- 81
2019-01-20 16:00:00 4.9 4 Sudeste 15 Sudeste 0 -- -- 80
2019-01-20 15:00:00 4.8 4 Nordeste 8 Nordeste 0 -- -- 80
2019-01-20 14:00:00 4 3 Sudeste 13 Este 0 -- -- 85
2019-01-20 13:00:00 3.7 5 Sudeste 10 Sudeste 0 -- -- 90
2019-01-20 12:00:00 -- 5 Este 13 Nordeste 0 -- -- --
2019-01-20 11:00:00 3.1 4 Nordeste 10 Nordeste 0 -- -- 91
2019-01-20 10:00:00 2 3 Nordeste 8 Este 0 -- -- 94
2019-01-20 09:00:00 0.6 0 Calma 5 Noroeste 0 -- -- 100
2019-01-20 08:00:00 0.5 0 Calma 6 Sudoeste 0 -- -- 97
2019-01-20 07:00:00 0.6 2 Sur 9 Sur 0 -- -- 95
2019-01-20 06:00:00 0.5 4 Sudoeste 13 Sudoeste 0 -- -- 94
2019-01-20 05:00:00 0.4 4 Sudoeste 10 Sudoeste 0 -- -- 93
2019-01-20 04:00:00 0.2 2 Sudoeste 8 Sur 0 -- -- 92
2019-01-20 03:00:00 0.4 3 Sudoeste 13 Oeste 0 -- -- 89
2019-01-20 02:00:00 -0.1 4 Sur 18 Sudoeste 0 -- -- 90
2019-01-20 01:00:00 -0.2 9 Oeste 26 Sudoeste 0 -- -- 90
2019-01-20 00:00:00 -0.4 6 Sudoeste 21 Sudoeste 0 -- -- 93
2019-01-19 23:00:00 -1.2 4 Sudoeste 13 Sudoeste 0 -- -- 98
2019-01-19 22:00:00 -2 3 Sur 8 Sur 0 -- -- 97
2019-01-19 21:00:00 -1.6 0 Calma 4 Sudoeste 0 -- -- 91
2019-01-19 20:00:00 0.2 0 Calma 13 Sudoeste 0 -- -- 85
2019-01-19 19:00:00 2.6 5 Sudoeste 23 Oeste 0 -- -- 76
2019-01-19 18:00:00 3.4 11 Sudoeste 24 Oeste 0 -- -- 72
2019-01-19 17:00:00 4.8 8 Sudoeste 19 Sudoeste 0 -- -- 66
2019-01-19 16:00:00 6.2 9 Sudoeste 23 Oeste 0 -- -- 60
2019-01-19 15:00:00 7.4 11 Sudoeste 21 Oeste 0 -- -- 52
2019-01-19 14:00:00 7.5 9 Sudoeste 21 Oeste 0 -- -- 56
2019-01-19 13:00:00 6 10 Sudoeste 21 Sudoeste 0 -- -- 61
2019-01-19 12:00:00 3.3 9 Sudoeste 19 Sudoeste 0 -- -- 82
2019-01-19 11:00:00 -1.2 9 Sudoeste 17 Sudoeste 0 -- -- 100
2019-01-19 10:00:00 -3.9 5 Sudoeste 10 Sudoeste 0 -- -- 100
2019-01-19 09:00:00 -5.1 3 Sudoeste 7 Sudoeste 0 -- -- 100
2019-01-19 08:00:00 -5.5 2 Sur 5 Sudoeste 0 -- -- 100
2019-01-19 07:00:00 -5.1 2 Sudoeste 5 Sur 0 -- -- 99
2019-01-19 06:00:00 -4.4 0 Calma 4 Sur 0 -- -- 99
2019-01-19 05:00:00 -3.3 0 Calma 4 Sur 0 -- -- 99
2019-01-19 04:00:00 -2.7 2 Sudoeste 4 Sudoeste 0 -- -- 97
2019-01-19 03:00:00 -- 0 Calma 5 Oeste 0 -- -- --
2019-01-19 02:00:00 -0.3 0 Calma 5 Este 0 -- -- 94
2019-01-19 01:00:00 0.3 0 Calma 9 Nordeste 0 -- -- 91
2019-01-19 00:00:00 1.3 4 Nordeste 9 Norte 0 -- -- 88